createdAt,value
2023-02-18T00:01:21.420Z,8.00
2023-02-18T00:04:08.546Z,8.00
2023-02-18T00:06:55.160Z,7.90
2023-02-18T00:09:41.750Z,7.90
2023-02-18T00:12:28.647Z,7.90
2023-02-18T00:15:16.663Z,7.90
2023-02-18T00:18:03.422Z,7.90
2023-02-18T00:20:50.063Z,8.00
2023-02-18T00:23:37.182Z,8.00
2023-02-18T00:26:24.158Z,8.00
2023-02-18T00:29:11.068Z,8.00
2023-02-18T00:31:59.188Z,8.00
2023-02-18T00:34:46.532Z,8.00
2023-02-18T00:37:35.276Z,8.00
2023-02-18T00:40:22.490Z,8.00
2023-02-18T00:43:09.863Z,8.10
2023-02-18T00:45:56.665Z,8.10
2023-02-18T00:48:45.570Z,8.00
2023-02-18T00:51:32.830Z,8.00
2023-02-18T00:54:19.326Z,7.90
2023-02-18T00:57:06.175Z,8.00
2023-02-18T00:59:52.991Z,8.00
2023-02-18T01:02:39.771Z,8.00
2023-02-18T01:05:28.874Z,7.90
2023-02-18T01:08:15.730Z,8.00
2023-02-18T01:11:03.262Z,8.00
2023-02-18T01:13:50.476Z,7.90
2023-02-18T01:16:37.093Z,8.00
2023-02-18T01:19:24.007Z,8.00
2023-02-18T01:22:12.368Z,8.00
2023-02-18T01:24:59.051Z,8.00
2023-02-18T01:27:45.895Z,8.10
2023-02-18T01:30:33.320Z,8.10
2023-02-18T01:33:20.543Z,8.10
2023-02-18T01:36:08.487Z,8.10
2023-02-18T01:38:56.576Z,8.10
2023-02-18T01:41:43.423Z,8.10
2023-02-18T01:44:31.142Z,8.10
2023-02-18T01:47:19.597Z,8.10
2023-02-18T01:50:08.015Z,8.10
2023-02-18T01:52:55.157Z,8.10
2023-02-18T01:55:43.674Z,8.10
2023-02-18T01:58:30.556Z,8.10
2023-02-18T02:01:17.488Z,8.10
2023-02-18T02:04:04.469Z,8.10
2023-02-18T02:06:51.165Z,8.10
2023-02-18T02:09:40.673Z,8.10
2023-02-18T02:12:45.019Z,8.10
2023-02-18T02:15:39.257Z,8.10
2023-02-18T02:18:42.357Z,8.10
2023-02-18T02:21:59.137Z,8.10
2023-02-18T02:25:11.332Z,8.10
2023-02-18T02:28:30.434Z,8.10
2023-02-18T02:31:43.825Z,8.10
2023-02-18T02:34:48.956Z,8.10
2023-02-18T02:37:43.113Z,8.00
2023-02-18T02:40:35.158Z,8.10
2023-02-18T02:43:29.872Z,8.10
2023-02-18T02:46:22.666Z,8.10
2023-02-18T02:49:20.622Z,8.10
2023-02-18T02:52:14.930Z,8.10
2023-02-18T02:55:01.715Z,8.10
2023-02-18T02:57:51.525Z,8.10
2023-02-18T03:00:48.700Z,8.00
2023-02-18T03:04:05.546Z,8.00
2023-02-18T03:07:23.470Z,8.00
2023-02-18T03:10:26.220Z,8.00
2023-02-18T03:13:24.700Z,8.00
2023-02-18T03:16:22.172Z,8.00
2023-02-18T03:19:14.920Z,8.00
2023-02-18T03:22:05.126Z,7.90
2023-02-18T03:24:54.282Z,7.90
2023-02-18T03:27:47.106Z,7.90
2023-02-18T03:30:41.485Z,7.90
2023-02-18T03:33:32.396Z,8.00
2023-02-18T03:36:21.371Z,7.90
2023-02-18T03:39:13.141Z,7.90
2023-02-18T03:42:00.161Z,7.90
2023-02-18T03:44:48.378Z,7.90
2023-02-18T03:47:35.860Z,7.90
2023-02-18T03:50:22.558Z,7.90
2023-02-18T03:53:09.809Z,7.90
2023-02-18T03:55:56.697Z,7.90
2023-02-18T03:58:43.930Z,7.90
2023-02-18T04:01:32.292Z,7.90
2023-02-18T04:04:19.554Z,7.90
2023-02-18T04:07:06.728Z,7.90
2023-02-18T04:09:53.529Z,7.90
2023-02-18T04:12:40.555Z,7.90
2023-02-18T04:15:27.611Z,7.90
2023-02-18T04:18:15.957Z,7.90
2023-02-18T04:21:03.087Z,7.80
2023-02-18T04:23:50.266Z,7.80
2023-02-18T04:26:36.904Z,7.80
2023-02-18T04:29:23.638Z,7.80
2023-02-18T04:32:10.645Z,7.80
2023-02-18T04:34:58.724Z,7.80
2023-02-18T04:37:45.691Z,7.80
2023-02-18T04:40:32.610Z,7.80
2023-02-18T04:43:19.336Z,7.80
2023-02-18T04:46:08.671Z,7.90
2023-02-18T04:48:55.941Z,7.90
2023-02-18T04:51:44.535Z,7.80
2023-02-18T04:54:31.818Z,7.80
2023-02-18T04:57:18.604Z,7.80
2023-02-18T05:00:07.166Z,7.80
2023-02-18T05:02:53.926Z,7.80
2023-02-18T05:05:41.912Z,7.80
2023-02-18T05:08:30.257Z,7.90
2023-02-18T05:11:17.217Z,7.80
2023-02-18T05:14:04.123Z,7.80
2023-02-18T05:16:51.299Z,7.80
2023-02-18T05:19:38.287Z,7.80
2023-02-18T05:22:25.391Z,7.70
2023-02-18T05:25:13.526Z,7.70
2023-02-18T05:28:00.817Z,7.70
2023-02-18T05:30:47.721Z,7.60
2023-02-18T05:33:34.780Z,7.60
2023-02-18T05:36:22.068Z,7.60
2023-02-18T05:39:09.547Z,7.70
2023-02-18T05:41:59.164Z,7.60
2023-02-18T05:44:46.342Z,7.60
2023-02-18T05:47:33.637Z,7.50
2023-02-18T05:50:20.504Z,7.50
2023-02-18T05:53:07.221Z,7.60
2023-02-18T05:55:54.341Z,7.60
2023-02-18T05:58:42.660Z,7.60
2023-02-18T06:01:30.033Z,7.70
2023-02-18T06:04:17.596Z,7.60
2023-02-18T06:07:04.616Z,7.60
2023-02-18T06:09:51.613Z,7.60
2023-02-18T06:12:38.627Z,7.60
2023-02-18T06:15:27.310Z,7.60
2023-02-18T06:18:14.440Z,7.60
2023-02-18T06:21:01.327Z,7.60
2023-02-18T06:23:48.688Z,7.60
2023-02-18T06:26:35.846Z,7.60
2023-02-18T06:29:22.861Z,7.60
2023-02-18T06:32:11.523Z,7.80
2023-02-18T06:34:58.534Z,7.80
2023-02-18T06:37:46.015Z,7.80
2023-02-18T06:40:33.095Z,7.90
2023-02-18T06:43:20.486Z,7.80
2023-02-18T06:46:08.676Z,7.90
2023-02-18T06:48:57.142Z,7.90
2023-02-18T06:51:44.649Z,7.90
2023-02-18T06:54:32.878Z,7.90
2023-02-18T06:57:23.418Z,7.90
2023-02-18T07:00:12.370Z,8.00
2023-02-18T07:03:00.380Z,8.00
2023-02-18T07:05:50.643Z,8.00
2023-02-18T07:08:39.212Z,8.00
2023-02-18T07:11:26.813Z,7.90
2023-02-18T07:14:14.324Z,8.00
2023-02-18T07:17:01.653Z,8.10
2023-02-18T07:19:49.460Z,8.10
2023-02-18T07:22:38.044Z,8.10
2023-02-18T07:25:26.231Z,8.20
2023-02-18T07:28:13.224Z,8.20
2023-02-18T07:31:00.158Z,8.10
2023-02-18T07:33:47.168Z,8.20
2023-02-18T07:36:34.543Z,8.20
2023-02-18T07:39:22.735Z,8.30
2023-02-18T07:42:10.112Z,8.30
2023-02-18T07:44:57.404Z,8.30
2023-02-18T07:47:45.658Z,8.40
2023-02-18T07:50:35.282Z,8.50
2023-02-18T07:53:22.437Z,8.40
2023-02-18T07:56:10.943Z,8.40
2023-02-18T07:58:58.077Z,8.50
2023-02-18T08:01:45.220Z,8.50
2023-02-18T08:04:32.609Z,8.50
2023-02-18T08:07:22.343Z,8.50
2023-02-18T08:10:10.114Z,8.50
2023-02-18T08:12:58.191Z,8.50
2023-02-18T08:15:45.327Z,8.60
2023-02-18T08:18:32.248Z,8.50
2023-02-18T08:21:20.477Z,8.50
2023-02-18T08:24:08.678Z,8.50
2023-02-18T08:27:00.728Z,8.60
2023-02-18T08:29:49.750Z,8.60
2023-02-18T08:32:37.278Z,8.60
2023-02-18T08:35:24.415Z,8.70
2023-02-18T08:38:11.633Z,8.60
2023-02-18T08:41:04.024Z,8.60
2023-02-18T08:43:51.251Z,8.70
2023-02-18T08:46:39.961Z,8.70
2023-02-18T08:49:26.864Z,8.60
2023-02-18T08:52:14.456Z,8.60
2023-02-18T08:55:01.642Z,8.70
2023-02-18T08:57:48.857Z,8.70
2023-02-18T09:00:36.553Z,8.80
2023-02-18T09:03:24.927Z,8.90
2023-02-18T09:06:12.216Z,8.90
2023-02-18T09:08:59.051Z,9.00
2023-02-18T09:11:46.404Z,9.10
2023-02-18T09:14:33.640Z,9.10
2023-02-18T09:17:20.737Z,9.10
2023-02-18T09:20:10.589Z,9.00
2023-02-18T09:22:57.865Z,9.10
2023-02-18T09:25:45.117Z,9.10
2023-02-18T09:28:31.921Z,9.10
2023-02-18T09:31:20.993Z,8.90
2023-02-18T09:34:08.438Z,9.00
2023-02-18T09:36:57.330Z,9.00
2023-02-18T09:39:44.451Z,9.10
2023-02-18T09:42:34.382Z,9.00
2023-02-18T09:45:22.314Z,9.00
2023-02-18T09:48:11.405Z,9.10
2023-02-18T09:50:58.380Z,9.10
2023-02-18T09:53:47.823Z,9.10
2023-02-18T09:56:38.578Z,9.10
2023-02-18T09:59:28.470Z,9.00
2023-02-18T10:02:17.581Z,9.10
2023-02-18T10:05:05.611Z,9.20
2023-02-18T10:07:56.258Z,9.30
2023-02-18T10:10:47.252Z,9.30
2023-02-18T10:13:35.393Z,9.40
2023-02-18T10:16:25.394Z,9.40
2023-02-18T10:19:23.617Z,9.30
2023-02-18T10:22:15.128Z,9.40
2023-02-18T10:25:04.723Z,9.30
2023-02-18T10:27:54.724Z,9.10
2023-02-18T10:30:44.394Z,9.00
2023-02-18T10:33:36.875Z,9.10
2023-02-18T10:36:27.648Z,9.20
2023-02-18T10:39:33.878Z,9.30
2023-02-18T10:42:34.726Z,9.50
2023-02-18T10:45:34.851Z,9.70
2023-02-18T10:48:45.489Z,9.80
2023-02-18T10:51:35.520Z,9.60
2023-02-18T10:54:26.250Z,9.70
2023-02-18T10:57:19.743Z,9.80
2023-02-18T11:00:19.004Z,9.90
2023-02-18T11:03:17.514Z,9.60
2023-02-18T11:06:04.455Z,9.30
2023-02-18T11:08:52.213Z,9.30
2023-02-18T11:11:40.770Z,9.50
2023-02-18T11:14:39.382Z,9.40
2023-02-18T11:17:31.168Z,9.60
2023-02-18T11:20:32.679Z,9.90
2023-02-18T11:23:22.145Z,9.80
2023-02-18T11:26:14.498Z,9.70
2023-02-18T11:29:05.196Z,9.70
2023-02-18T11:31:54.872Z,9.80
2023-02-18T11:34:45.684Z,10.00
2023-02-18T11:37:35.440Z,9.90
2023-02-18T11:40:25.943Z,9.90
2023-02-18T11:43:15.779Z,9.80
2023-02-18T11:46:14.870Z,9.60
2023-02-18T11:49:22.783Z,9.40
2023-02-18T11:52:18.973Z,9.30
2023-02-18T11:55:15.270Z,9.40
2023-02-18T11:58:05.274Z,9.30
2023-02-18T12:00:55.049Z,9.50
2023-02-18T12:03:48.113Z,9.60
2023-02-18T12:06:40.017Z,9.50
2023-02-18T12:09:32.159Z,9.40
2023-02-18T12:12:27.684Z,9.50
2023-02-18T12:15:20.280Z,9.60
2023-02-18T12:18:30.497Z,9.60
2023-02-18T12:21:34.931Z,9.90
2023-02-18T12:24:46.560Z,10.10
2023-02-18T12:27:42.877Z,9.90
2023-02-18T12:30:45.129Z,9.80
2023-02-18T12:33:43.278Z,9.80
2023-02-18T12:36:44.742Z,9.80
2023-02-18T12:39:42.064Z,9.60
2023-02-18T12:42:43.717Z,9.80
2023-02-18T12:45:56.550Z,9.70
2023-02-18T12:49:00.240Z,9.80
2023-02-18T12:52:06.475Z,9.60
2023-02-18T12:55:35.976Z,9.80
2023-02-18T12:58:37.897Z,9.60
2023-02-18T13:01:45.104Z,9.90
2023-02-18T13:04:50.961Z,9.70
2023-02-18T13:08:00.360Z,9.50
2023-02-18T13:11:02.995Z,9.70
2023-02-18T13:13:59.958Z,9.90
2023-02-18T13:16:52.097Z,10.00
2023-02-18T13:19:46.290Z,10.00
2023-02-18T13:22:34.503Z,10.10
2023-02-18T13:25:22.452Z,10.10
2023-02-18T13:28:23.100Z,9.90
2023-02-18T13:31:24.096Z,9.90
2023-02-18T13:34:21.117Z,9.70
2023-02-18T13:37:17.668Z,9.60
2023-02-18T13:40:05.787Z,9.80
2023-02-18T13:42:55.465Z,9.80
2023-02-18T13:45:43.226Z,9.80
2023-02-18T13:48:32.435Z,9.80
2023-02-18T13:51:30.706Z,9.60
2023-02-18T13:54:23.562Z,9.90
2023-02-18T13:57:16.950Z,10.00
2023-02-18T14:00:07.411Z,10.10
2023-02-18T14:02:59.570Z,10.00
2023-02-18T14:05:48.179Z,9.70
2023-02-18T14:08:36.785Z,9.80
2023-02-18T14:11:42.234Z,9.70
2023-02-18T14:14:41.671Z,9.60
2023-02-18T14:17:38.749Z,9.70
2023-02-18T14:20:52.393Z,9.60
2023-02-18T14:23:45.496Z,9.60
2023-02-18T14:26:35.646Z,9.70
2023-02-18T14:29:29.937Z,9.60
2023-02-18T14:32:20.815Z,9.60
2023-02-18T14:35:24.740Z,9.60
2023-02-18T14:38:38.605Z,9.60
2023-02-18T14:41:48.521Z,9.60
2023-02-18T14:44:49.564Z,9.70
2023-02-18T14:47:52.274Z,9.60
2023-02-18T14:50:42.814Z,9.40
2023-02-18T14:53:31.484Z,9.50
2023-02-18T14:56:21.866Z,9.60
2023-02-18T14:59:09.961Z,9.60
2023-02-18T15:01:57.564Z,9.60
2023-02-18T15:04:46.054Z,9.60
2023-02-18T15:07:33.180Z,9.70
2023-02-18T15:10:22.807Z,9.60
2023-02-18T15:13:15.934Z,9.60
2023-02-18T15:16:06.012Z,9.60
2023-02-18T15:18:57.403Z,9.70
2023-02-18T15:21:46.950Z,9.70
2023-02-18T15:24:35.498Z,9.70
2023-02-18T15:27:26.132Z,9.80
2023-02-18T15:30:22.428Z,9.70
2023-02-18T15:33:32.210Z,9.70
2023-02-18T15:36:19.279Z,9.60
2023-02-18T15:39:06.356Z,9.60
2023-02-18T15:41:56.069Z,9.60
2023-02-18T15:44:49.270Z,9.40
2023-02-18T15:47:36.183Z,9.30
2023-02-18T15:50:28.964Z,9.30
2023-02-18T15:53:18.236Z,9.20
2023-02-18T15:56:08.878Z,9.20
2023-02-18T15:59:09.807Z,9.10
2023-02-18T16:02:10.759Z,9.10
2023-02-18T16:05:02.769Z,9.00
2023-02-18T16:07:54.375Z,9.00
2023-02-18T16:10:48.776Z,8.90
2023-02-18T16:13:36.827Z,8.90
2023-02-18T16:16:28.790Z,8.90
2023-02-18T16:19:26.599Z,8.80
2023-02-18T16:22:28.825Z,8.80
2023-02-18T16:25:20.375Z,8.80
2023-02-18T16:28:13.546Z,8.70
2023-02-18T16:31:00.749Z,8.70
2023-02-18T16:33:47.792Z,8.60
2023-02-18T16:36:36.380Z,8.50
2023-02-18T16:39:23.306Z,8.40
2023-02-18T16:42:11.865Z,8.40
2023-02-18T16:44:59.039Z,8.30
2023-02-18T16:47:47.654Z,8.30
2023-02-18T16:50:35.365Z,8.20
2023-02-18T16:53:23.836Z,8.20
2023-02-18T16:56:16.147Z,8.10
2023-02-18T16:59:03.374Z,8.00
2023-02-18T17:01:50.266Z,7.90
2023-02-18T17:04:37.448Z,7.90
2023-02-18T17:07:24.705Z,7.80
2023-02-18T17:10:13.958Z,7.80
2023-02-18T17:13:01.140Z,7.70
2023-02-18T17:15:50.966Z,7.60
2023-02-18T17:18:38.051Z,7.50
2023-02-18T17:21:26.589Z,7.40
2023-02-18T17:24:14.415Z,7.20
2023-02-18T17:27:02.721Z,7.10
2023-02-18T17:29:49.702Z,7.00
2023-02-18T17:32:36.617Z,6.90
2023-02-18T17:35:24.562Z,6.90
2023-02-18T17:38:12.428Z,6.90
2023-02-18T17:40:59.412Z,7.00
2023-02-18T17:43:47.964Z,7.10
2023-02-18T17:46:34.982Z,7.10
2023-02-18T17:49:22.640Z,7.10
2023-02-18T17:52:25.117Z,7.20
2023-02-18T17:55:24.111Z,7.10
2023-02-18T17:58:11.513Z,7.20
2023-02-18T18:01:00.389Z,7.10
2023-02-18T18:03:48.110Z,7.00
2023-02-18T18:06:36.174Z,7.00
2023-02-18T18:09:23.614Z,7.10
2023-02-18T18:12:10.843Z,7.30
2023-02-18T18:14:57.967Z,7.30
2023-02-18T18:17:46.396Z,7.30
2023-02-18T18:20:35.396Z,7.30
2023-02-18T18:23:23.017Z,7.30
2023-02-18T18:26:10.842Z,7.30
2023-02-18T18:28:57.555Z,7.20
2023-02-18T18:31:44.492Z,7.30
2023-02-18T18:34:33.383Z,7.30
2023-02-18T18:37:20.128Z,7.20
2023-02-18T18:40:07.746Z,7.30
2023-02-18T18:42:55.021Z,7.40
2023-02-18T18:45:42.227Z,7.40
2023-02-18T18:48:29.726Z,7.40
2023-02-18T18:51:20.230Z,7.40
2023-02-18T18:54:07.317Z,7.40
2023-02-18T18:56:55.067Z,7.40
2023-02-18T18:59:42.369Z,7.60
2023-02-18T19:02:29.378Z,7.40
2023-02-18T19:05:20.812Z,7.50
2023-02-18T19:08:10.480Z,7.40
2023-02-18T19:11:14.301Z,7.40
2023-02-18T19:14:21.268Z,7.50
2023-02-18T19:17:14.799Z,7.40
2023-02-18T19:20:02.150Z,7.40
2023-02-18T19:22:49.405Z,7.50
2023-02-18T19:25:37.812Z,7.40
2023-02-18T19:28:25.246Z,7.30
2023-02-18T19:31:12.318Z,7.40
2023-02-18T19:33:59.445Z,7.40
2023-02-18T19:36:46.716Z,7.40
2023-02-18T19:39:35.670Z,7.40
2023-02-18T19:42:24.037Z,7.50
2023-02-18T19:45:11.855Z,7.60
2023-02-18T19:48:00.388Z,7.50
2023-02-18T19:50:47.486Z,7.50
2023-02-18T19:53:34.597Z,7.60
2023-02-18T19:56:21.911Z,7.60
2023-02-18T19:59:12.752Z,7.60
2023-02-18T20:01:59.978Z,7.60
2023-02-18T20:04:47.436Z,7.60
2023-02-18T20:07:36.230Z,7.70
2023-02-18T20:10:23.715Z,7.70
2023-02-18T20:13:12.255Z,7.70
2023-02-18T20:16:00.609Z,7.80
2023-02-18T20:18:47.751Z,7.80
2023-02-18T20:21:34.896Z,7.90
2023-02-18T20:24:22.151Z,7.80
2023-02-18T20:27:10.470Z,7.90
2023-02-18T20:30:03.752Z,7.90
2023-02-18T20:32:52.144Z,7.90
2023-02-18T20:35:39.610Z,7.90
2023-02-18T20:38:26.660Z,7.90
2023-02-18T20:41:18.010Z,7.90
2023-02-18T20:44:05.361Z,8.00
2023-02-18T20:46:52.553Z,7.90
2023-02-18T20:49:41.824Z,7.90
2023-02-18T20:52:28.940Z,7.90
2023-02-18T20:55:16.252Z,7.90
2023-02-18T20:58:03.120Z,7.90
2023-02-18T21:00:57.889Z,7.90
2023-02-18T21:03:49.087Z,7.90
2023-02-18T21:06:39.944Z,7.90
2023-02-18T21:09:26.829Z,7.90
2023-02-18T21:12:13.851Z,8.10
2023-02-18T21:15:00.731Z,8.10
2023-02-18T21:17:50.399Z,8.10
2023-02-18T21:20:37.431Z,8.10
2023-02-18T21:23:25.944Z,8.10
2023-02-18T21:26:14.684Z,8.10
2023-02-18T21:29:05.254Z,8.10
2023-02-18T21:31:52.171Z,8.10
2023-02-18T21:34:39.262Z,8.10
2023-02-18T21:37:26.154Z,8.10
2023-02-18T21:40:15.557Z,8.10
2023-02-18T21:43:02.465Z,8.10
2023-02-18T21:45:49.468Z,8.10
2023-02-18T21:48:55.233Z,8.10
2023-02-18T21:52:00.766Z,8.10
2023-02-18T21:54:48.215Z,8.10
2023-02-18T21:57:36.996Z,8.10
2023-02-18T22:00:24.296Z,8.10
2023-02-18T22:03:11.534Z,8.10
2023-02-18T22:05:58.626Z,8.10
2023-02-18T22:08:45.934Z,8.10
2023-02-18T22:11:33.664Z,8.10
2023-02-18T22:14:21.892Z,8.10
2023-02-18T22:17:10.349Z,8.10
2023-02-18T22:19:57.298Z,8.00
2023-02-18T22:22:44.681Z,8.00
2023-02-18T22:25:31.457Z,8.00
2023-02-18T22:28:18.726Z,8.00
2023-02-18T22:31:10.387Z,8.00
2023-02-18T22:33:58.812Z,8.00
2023-02-18T22:36:46.459Z,8.00
2023-02-18T22:39:33.556Z,7.90
2023-02-18T22:42:23.597Z,7.90
2023-02-18T22:45:11.328Z,7.90
2023-02-18T22:48:02.088Z,7.90
2023-02-18T22:50:49.064Z,7.90
2023-02-18T22:53:36.188Z,7.90
2023-02-18T22:56:24.468Z,7.80
2023-02-18T22:59:12.550Z,7.80
2023-02-18T23:01:59.866Z,7.80
2023-02-18T23:04:48.637Z,7.70
2023-02-18T23:07:35.426Z,7.80
2023-02-18T23:10:25.455Z,7.70
2023-02-18T23:13:12.256Z,7.70
2023-02-18T23:15:59.554Z,7.80
2023-02-18T23:18:46.876Z,7.80
2023-02-18T23:21:35.358Z,7.80
2023-02-18T23:24:22.620Z,7.80
2023-02-18T23:27:11.851Z,7.80
2023-02-18T23:29:58.888Z,7.80
2023-02-18T23:32:45.996Z,7.70
2023-02-18T23:35:32.952Z,7.70
2023-02-18T23:38:21.085Z,7.70
2023-02-18T23:41:09.214Z,7.70
2023-02-18T23:43:57.304Z,7.70
2023-02-18T23:46:45.707Z,7.60
2023-02-18T23:49:32.892Z,7.60
2023-02-18T23:52:19.825Z,7.60
2023-02-18T23:55:08.635Z,7.60
2023-02-18T23:57:55.955Z,7.60
